Terminal Aerodrome Forecast
Issued by NWS

Home | Current Version | Previous Version | Text Only | Print | Product List | Glossary On
Versions: 1 2 3 4 5 6 7 8 9 10 11 12 13 14 15 16 17 18 19 20 21 22 23 24
000
FTUS43 KDVN 182300
TAFCID
TAF
KCID 182320Z 1900/1924 31004KT P6SM OVC060
     FM191300 00000KT 6SM BR OVC035
     FM191600 17004KT P6SM OVC050
     FM192000 18005KT P6SM OVC025=

USA.gov is the U.S. government's official web portal to all federal, state and local government web resources and services.